Observation data for Roaring Springs on 08/13/2019      Previous  Date       Current Mesonet Observations  Soil Data  Daily Summary Page  Observations in Plain Language
KRRS 130500Z 13002KT 30/15 A2991 RMK A01 T03030145  RH  040%=      5-min Rain = 0
KRRS 130505Z 02004KT 30/15 A2991 RMK A01 T03020145  RH  040%=      5-min Rain = 0
KRRS 130510Z 01007KT 30/15 A2992 RMK A01 T02950153  RH  044%=      5-min Rain = 0
KRRS 130515Z 04009KT 29/16 A2992 RMK A01 T02900164  RH  049%=      5-min Rain = 0
KRRS 130520Z 04008KT 29/17 A2993 RMK A01 T02870171  RH  052%=      5-min Rain = 0
KRRS 130525Z 03009KT 28/17 A2993 RMK A01 T02840173  RH  054%=      5-min Rain = 0
KRRS 130530Z 03007G13KT 28/17 A2993 RMK A01 T02820174  RH  055%=      5-min Rain = 0
KRRS 130535Z 02012G18KT 28/17 A2993 RMK A01 T02810173  RH  055%=      5-min Rain = 0
KRRS 130540Z 36010G17KT 28/18 A2994 RMK A01 T02800177  RH  056%=      5-min Rain = 0
KRRS 130545Z 36014G19KT 27/18 A2995 RMK A01 T02710183  RH  062%=      5-min Rain = 0
KRRS 130550Z 01016G21KT 26/19 A2995 RMK A01 T02580189  RH  069%=      5-min Rain = 0
KRRS 130555Z 01014G21KT 25/19 A2996 RMK A01 T02480191  RH  074%=      5-min Rain = 0
KRRS 130600Z 02016G22KT 24/19 A2996 RMK A01 T02430193  RH  078%=      5-min Rain = 0
KRRS 130605Z 03016KT 24/19 A2996 RMK A01 T02390194  RH  080%=      5-min Rain = 0
KRRS 130610Z 03014G21KT 24/20 A2996 RMK A01 T02370195  RH  081%=      5-min Rain = 0
KRRS 130615Z 03013G18KT 24/20 A2997 RMK A01 T02370195  RH  082%=      5-min Rain = 0
KRRS 130620Z 03012G17KT 24/19 A2997 RMK A01 T02360194  RH  082%=      5-min Rain = 0
KRRS 130625Z 02013KT 24/19 A2997 RMK A01 T02370194  RH  082%=      5-min Rain = 0
KRRS 130630Z 02012G18KT 24/19 A2998 RMK A01 T02370194  RH  081%=      5-min Rain = 0
KRRS 130635Z 02014G20KT 24/19 A2998 RMK A01 T02370194  RH  081%=      5-min Rain = 0
KRRS 130640Z 02015G22KT 24/20 A2997 RMK A01 T02370195  RH  082%=      5-min Rain = 0
KRRS 130645Z 02013G19KT 24/20 A2998 RMK A01 T02350196  RH  083%=      5-min Rain = 0
KRRS 130650Z 02013G18KT 23/20 A2998 RMK A01 T02330196  RH  084%=      5-min Rain = 0
KRRS 130655Z 02015G20KT 23/20 A2998 RMK A01 T02320196  RH  085%=      5-min Rain = 0
KRRS 130700Z 03014G19KT 23/20 A2997 RMK A01 T02300196  RH  086%=      5-min Rain = 0
KRRS 130705Z 03014G19KT 23/20 A2998 RMK A01 T02290195  RH  086%=      5-min Rain = 0
KRRS 130710Z 03013KT 23/20 A2997 RMK A01 T02290195  RH  086%=      5-min Rain = 0
KRRS 130715Z 03012G17KT 23/19 A2997 RMK A01 T02290194  RH  086%=      5-min Rain = 0
KRRS 130720Z 03010KT 23/19 A2997 RMK A01 T02280194  RH  086%=      5-min Rain = 0
KRRS 130725Z 03010G15KT 23/19 A2997 RMK A01 T02260194  RH  087%=      5-min Rain = 0
KRRS 130730Z 02011KT 23/20 A2997 RMK A01 T02250195  RH  088%=      5-min Rain = 0
KRRS 130735Z 02010KT 22/20 A2997 RMK A01 T02240195  RH  089%=      5-min Rain = 0
KRRS 130740Z 02010KT 22/20 A2997 RMK A01 T02220196  RH  090%=      5-min Rain = 0
KRRS 130745Z 02009KT 22/20 A2997 RMK A01 T02200196  RH  091%=      5-min Rain = 0
KRRS 130750Z 02010KT 22/20 A2996 RMK A01 T02190196  RH  092%=      5-min Rain = 0
KRRS 130755Z 03010KT 22/20 A2997 RMK A01 T02190197  RH  092%=      5-min Rain = 0
KRRS 130800Z 03010KT 22/20 A2997 RMK A01 T02180197  RH  093%=      5-min Rain = 0
KRRS 130805Z 03009KT 22/20 A2997 RMK A01 T02170197  RH  093%=      5-min Rain = 0
KRRS 130810Z 03009KT 22/20 A2997 RMK A01 T02170197  RH  094%=      5-min Rain = 0
KRRS 130815Z 03008KT 22/20 A2997 RMK A01 T02160197  RH  095%=      5-min Rain = 0
KRRS 130820Z 03007KT 22/20 A2997 RMK A01 T02150197  RH  095%=      5-min Rain = 0
KRRS 130825Z 03009KT 22/20 A2997 RMK A01 T02150197  RH  095%=      5-min Rain = 0
KRRS 130830Z 04009KT 21/20 A2997 RMK A01 T02140197  RH  095%=      5-min Rain = 0
KRRS 130835Z 04011KT 22/20 A2997 RMK A01 T02150197  RH  095%=      5-min Rain = 0
KRRS 130840Z 04010KT 22/20 A2997 RMK A01 T02150197  RH  095%=      5-min Rain = 0
KRRS 130845Z 04010G15KT 22/20 A2997 RMK A01 T02150198  RH  095%=      5-min Rain = 0
KRRS 130850Z 03009KT 22/20 A2997 RMK A01 T02150198  RH  095%=      5-min Rain = 0
KRRS 130855Z 03009KT 21/20 A2997 RMK A01 T02140198  RH  096%=      5-min Rain = 0
KRRS 130900Z 03010G16KT 21/20 A2997 RMK A01 T02140198  RH  096%=      5-min Rain = 0
KRRS 130905Z 03010KT 21/20 A2998 RMK A01 T02140198  RH  096%=      5-min Rain = 0
KRRS 130910Z 02009G14KT 21/20 A2998 RMK A01 T02130198  RH  096%=      5-min Rain = 0
KRRS 130915Z 03008G13KT 21/20 A2998 RMK A01 T02130198  RH  096%=      5-min Rain = 0
KRRS 130920Z 04007KT 21/20 A2998 RMK A01 T02140198  RH  096%=      5-min Rain = 0
KRRS 130925Z 05008KT 21/20 A2998 RMK A01 T02140198  RH  096%=      5-min Rain = 0
KRRS 130930Z 04008KT 21/20 A2998 RMK A01 T02140197  RH  095%=      5-min Rain = 0
KRRS 130935Z 04008KT 21/20 A2998 RMK A01 T02130197  RH  096%=      5-min Rain = 0
KRRS 130940Z 04010KT 21/20 A2998 RMK A01 T02120196  RH  096%=      5-min Rain = 0
KRRS 130945Z 04010KT 21/20 A2998 RMK A01 T02110196  RH  097%=      5-min Rain = 0
KRRS 130950Z 04010KT 21/20 A2997 RMK A01 T02100196  RH  097%=      5-min Rain = 0
KRRS 130955Z 04010KT 21/20 A2997 RMK A01 T02100196  RH  097%=      5-min Rain = 0
KRRS 131000Z 04011KT 21/20 A2998 RMK A01 T02090197  RH  098%=      5-min Rain = 0
KRRS 131005Z 03010KT 21/20 A2998 RMK A01 T02090197  RH  098%=      5-min Rain = 0
KRRS 131010Z 03010KT 21/20 A2999 RMK A01 T02100197  RH  098%=      5-min Rain = 0
KRRS 131015Z 03010KT 21/20 A2999 RMK A01 T02110197  RH  098%=      5-min Rain = 0
KRRS 131020Z 03009KT 21/20 A2999 RMK A01 T02110198  RH  097%=      5-min Rain = 0
KRRS 131025Z 03009KT 21/20 A2999 RMK A01 T02110198  RH  098%=      5-min Rain = 0
KRRS 131030Z 03010KT 21/20 A2999 RMK A01 T02110198  RH  098%=      5-min Rain = 0
KRRS 131035Z 03008KT 21/20 A2999 RMK A01 T02110198  RH  098%=      5-min Rain = 0
KRRS 131040Z 04007KT 21/20 A2999 RMK A01 T02100197  RH  098%=      5-min Rain = 0
KRRS 131045Z 04006KT 21/20 A2999 RMK A01 T02090197  RH  098%=      5-min Rain = 0
KRRS 131050Z 04008G13KT 21/20 A2999 RMK A01 T02080197  RH  099%=      5-min Rain = 0
KRRS 131055Z 04008KT 21/20 A2999 RMK A01 T02080197  RH  099%=      5-min Rain = 0
KRRS 131100Z 04008KT 21/20 A2998 RMK A01 T02070197  RH  099%=      5-min Rain = 0
KRRS 131105Z 04007KT 21/20 A2998 RMK A01 T02070197  RH  099%=      5-min Rain = 0
KRRS 131110Z 05007KT 21/20 A2998 RMK A01 T02080197  RH  099%=      5-min Rain = 0
KRRS 131115Z 05006KT 21/20 A2998 RMK A01 T02080198  RH  100%=      5-min Rain = 0
KRRS 131120Z 05006KT 21/20 A2998 RMK A01 T02080198  RH  099%=      5-min Rain = 0
KRRS 131125Z 06006KT 21/20 A2999 RMK A01 T02090198  RH  099%=      5-min Rain = 0
KRRS 131130Z 07005KT 21/20 A2999 RMK A01 T02090198  RH  099%=      5-min Rain = 0
KRRS 131135Z 07005KT 21/20 A2999 RMK A01 T02090198  RH  099%=      5-min Rain = 0
KRRS 131140Z 07004KT 21/20 A2999 RMK A01 T02090198  RH  099%=      5-min Rain = 0
KRRS 131145Z 07005KT 21/20 A2999 RMK A01 T02090198  RH  099%=      5-min Rain = 0
KRRS 131150Z 08006KT 21/20 A2999 RMK A01 T02090198  RH  099%=      5-min Rain = 0
KRRS 131155Z 08006KT 21/20 A2999 RMK A01 T02090198  RH  099%=      5-min Rain = 0
KRRS 131200Z 08005KT 21/20 A2999 RMK A01 T02080197  RH  099%=      5-min Rain = 0
KRRS 131205Z 06004KT 21/20 A2999 RMK A01 T02070197  RH  099%=      5-min Rain = 0
KRRS 131210Z 06004KT 21/20 A30 RMK A01 T02070197  RH  099%=      5-min Rain = 0
KRRS 131215Z 06004KT 21/20 A30 RMK A01 T02060197  RH  100%=      5-min Rain = 0
KRRS 131220Z 07004KT 21/20 A30 RMK A01 T02060197  RH  100%=      5-min Rain = 0
KRRS 131225Z 06004KT 21/20 A30 RMK A01 T02070197  RH  100%=      5-min Rain = 0
KRRS 131230Z 07003KT 21/20 A30 RMK A01 T02070197  RH  100%=      5-min Rain = 0
KRRS 131235Z 08003KT 21/20 A30 RMK A01 T02070198  RH  100%=      5-min Rain = 0
KRRS 131240Z 07003KT 21/20 A30 RMK A01 T02080198  RH  099%=      5-min Rain = 0
KRRS 131245Z 06003KT 21/20 A3001 RMK A01 T02090198  RH  099%=      5-min Rain = 0
KRRS 131250Z 05003KT 21/20 A3001 RMK A01 T02120200  RH  098%=      5-min Rain = 0
KRRS 131255Z 05003KT 21/20 A3001 RMK A01 T02140200  RH  097%=      5-min Rain = 0
KRRS 131300Z 04003KT 22/20 A3002 RMK A01 T02150199  RH  096%=      5-min Rain = 0
KRRS 131305Z 04003KT 22/20 A3002 RMK A01 T02150200  RH  096%=      5-min Rain = 0
KRRS 131310Z 02003KT 22/20 A3002 RMK A01 T02160200  RH  096%=      5-min Rain = 0
KRRS 131315Z 02002KT 22/20 A3003 RMK A01 T02170200  RH  096%=      5-min Rain = 0
KRRS 131320Z 03002KT 22/20 A3003 RMK A01 T02190201  RH  095%=      5-min Rain = 0
KRRS 131325Z 04002KT 22/20 A3003 RMK A01 T02200200  RH  094%=      5-min Rain = 0
KRRS 131330Z 06003KT 22/20 A3003 RMK A01 T02220201  RH  093%=      5-min Rain = 0
KRRS 131335Z 06004KT 23/20 A3003 RMK A01 T02250200  RH  091%=      5-min Rain = 0
KRRS 131340Z 08004KT 23/20 A3003 RMK A01 T02250200  RH  091%=      5-min Rain = 0
KRRS 131345Z 08005KT 23/20 A3003 RMK A01 T02300200  RH  088%=      5-min Rain = 0
KRRS 131350Z 09004KT 23/20 A3003 RMK A01 T02330201  RH  087%=      5-min Rain = 0
KRRS 131355Z 08004KT 24/20 A3003 RMK A01 T02400202  RH  084%=      5-min Rain = 0
KRRS 131400Z 09004KT 24/20 A3003 RMK A01 T02420202  RH  083%=      5-min Rain = 0
KRRS 131405Z 09006KT 25/20 A3004 RMK A01 T02460201  RH  081%=      5-min Rain = 0
KRRS 131410Z 08007G12KT 25/20 A3004 RMK A01 T02510200  RH  078%=      5-min Rain = 0
KRRS 131415Z 09009G14KT 25/20 A3004 RMK A01 T02540200  RH  076%=      5-min Rain = 0
KRRS 131420Z 09009G14KT 26/20 A3004 RMK A01 T02560199  RH  075%=      5-min Rain = 0
KRRS 131425Z 08010KT 26/20 A3004 RMK A01 T02590199  RH  074%=      5-min Rain = 0
KRRS 131430Z 07010KT 26/20 A3005 RMK A01 T02600200  RH  074%=      5-min Rain = 0
KRRS 131435Z 05011KT 26/20 A3005 RMK A01 T02600200  RH  074%=      5-min Rain = 0
KRRS 131440Z 04009KT 26/20 A3005 RMK A01 T02600201  RH  074%=      5-min Rain = 0
KRRS 131445Z 04009KT 26/20 A3005 RMK A01 T02600200  RH  073%=      5-min Rain = 0
KRRS 131450Z 04008KT 26/20 A3005 RMK A01 T02640201  RH  073%=      5-min Rain = 0
KRRS 131455Z 04008KT 26/20 A3005 RMK A01 T02630201  RH  073%=      5-min Rain = 0
KRRS 131500Z 03008KT 26/20 A3005 RMK A01 T02620199  RH  073%=      5-min Rain = 0
KRRS 131505Z 03009KT 26/20 A3005 RMK A01 T02640200  RH  072%=      5-min Rain = 0
KRRS 131510Z 04009G14KT 27/20 A3005 RMK A01 T02670200  RH  071%=      5-min Rain = 0
KRRS 131515Z 04008KT 27/20 A3005 RMK A01 T02690200  RH  070%=      5-min Rain = 0
KRRS 131520Z 05009KT 27/20 A3006 RMK A01 T02690199  RH  069%=      5-min Rain = 0
KRRS 131525Z 04009G15KT 27/20 A3006 RMK A01 T02690199  RH  069%=      5-min Rain = 0
KRRS 131530Z 04009KT 27/20 A3006 RMK A01 T02720201  RH  069%=      5-min Rain = 0
KRRS 131535Z 04009KT 27/20 A3006 RMK A01 T02740201  RH  068%=      5-min Rain = 0
KRRS 131540Z 03010G15KT 28/20 A3006 RMK A01 T02760199  RH  066%=      5-min Rain = 0
KRRS 131545Z 04010KT 28/20 A3006 RMK A01 T02780199  RH  066%=      5-min Rain = 0
KRRS 131550Z 03007KT 28/20 A3006 RMK A01 T02800200  RH  065%=      5-min Rain = 0
KRRS 131555Z 05009G14KT 28/20 A3006 RMK A01 T02810198  RH  064%=      5-min Rain = 0
KRRS 131600Z 05008G13KT 28/20 A3006 RMK A01 T02810197  RH  064%=      5-min Rain = 0
KRRS 131605Z 05010G19KT 29/20 A3006 RMK A01 T02860197  RH  062%=      5-min Rain = 0
KRRS 131610Z 07009KT 29/20 A3006 RMK A01 T02880196  RH  061%=      5-min Rain = 0
KRRS 131615Z 05010G15KT 29/19 A3007 RMK A01 T02870194  RH  060%=      5-min Rain = 0
KRRS 131620Z 05009KT 29/19 A3007 RMK A01 T02880194  RH  060%=      5-min Rain = 0
KRRS 131625Z 07010G16KT 29/19 A3007 RMK A01 T02920193  RH  059%=      5-min Rain = 0
KRRS 131630Z 07008G13KT 29/19 A3007 RMK A01 T02920194  RH  059%=      5-min Rain = 0
KRRS 131635Z 06010KT 30/19 A3007 RMK A01 T02950194  RH  058%=      5-min Rain = 0
KRRS 131640Z 08011KT 30/19 A3007 RMK A01 T02960193  RH  057%=      5-min Rain = 0
KRRS 131645Z 08008G15KT 30/19 A3007 RMK A01 T02970194  RH  057%=      5-min Rain = 0
KRRS 131650Z 07009G15KT 30/19 A3007 RMK A01 T02980193  RH  056%=      5-min Rain = 0
KRRS 131655Z 05009G15KT 30/19 A3007 RMK A01 T02970193  RH  057%=      5-min Rain = 0
KRRS 131700Z 06009G14KT 30/20 A3007 RMK A01 T03000195  RH  056%=      5-min Rain = 0
KRRS 131705Z 07010G15KT 30/19 A3007 RMK A01 T03040194  RH  055%=      5-min Rain = 0
KRRS 131710Z 06010KT 30/19 A3007 RMK A01 T03040193  RH  055%=      5-min Rain = 0
KRRS 131715Z 07009KT 30/20 A3007 RMK A01 T03040195  RH  055%=      5-min Rain = 0
KRRS 131720Z 05009KT 31/20 A3007 RMK A01 T03050195  RH  055%=      5-min Rain = 0
KRRS 131725Z 07010KT 31/20 A3007 RMK A01 T03070195  RH  054%=      5-min Rain = 0
KRRS 131730Z 05011G16KT 31/19 A3007 RMK A01 T03070194  RH  054%=      5-min Rain = 0
KRRS 131735Z 06008G14KT 31/19 A3007 RMK A01 T03090194  RH  053%=      5-min Rain = 0
KRRS 131740Z 06009KT 31/19 A3007 RMK A01 T03090193  RH  053%=      5-min Rain = 0
KRRS 131745Z 07009G14KT 31/19 A3006 RMK A01 T03070194  RH  054%=      5-min Rain = 0
KRRS 131750Z 04011G16KT 31/19 A3007 RMK A01 T03090194  RH  053%=      5-min Rain = 0
KRRS 131755Z 05011KT 31/19 A3006 RMK A01 T03100192  RH  052%=      5-min Rain = 0
KRRS 131800Z 04011G17KT 31/19 A3006 RMK A01 T03110192  RH  052%=      5-min Rain = 0
KRRS 131805Z 05009KT 31/19 A3006 RMK A01 T03110191  RH  052%=      5-min Rain = 0
KRRS 131810Z 06009G14KT 31/19 A3006 RMK A01 T03120192  RH  052%=      5-min Rain = 0
KRRS 131815Z 05011G16KT 32/19 A3006 RMK A01 T03150193  RH  051%=      5-min Rain = 0
KRRS 131820Z 07007KT 32/19 A3006 RMK A01 T03170194  RH  051%=      5-min Rain = 0
KRRS 131825Z 04011G19KT 32/19 A3006 RMK A01 T03200192  RH  049%=      5-min Rain = 0
KRRS 131830Z 06011G16KT 32/19 A3006 RMK A01 T03220192  RH  049%=      5-min Rain = 0
KRRS 131835Z 07010G15KT 32/19 A3006 RMK A01 T03210194  RH  050%=      5-min Rain = 0
KRRS 131840Z 04010G18KT 32/19 A3006 RMK A01 T03220192  RH  049%=      5-min Rain = 0
KRRS 131845Z 04011G18KT 33/19 A3006 RMK A01 T03250186  RH  046%=      5-min Rain = 0
KRRS 131850Z 04009G15KT 32/19 A3005 RMK A01 T03230190  RH  048%=      5-min Rain = 0
KRRS 131855Z 05012G20KT 33/19 A3005 RMK A01 T03280192  RH  047%=      5-min Rain = 0
KRRS 131900Z 04008G14KT 33/19 A3005 RMK A01 T03250191  RH  048%=      5-min Rain = 0
KRRS 131905Z 03013G18KT 33/19 A3005 RMK A01 T03300186  RH  045%=      5-min Rain = 0
KRRS 131910Z 05011G17KT 33/18 A3005 RMK A01 T03300184  RH  045%=      5-min Rain = 0
KRRS 131915Z 04014G19KT 33/18 A3005 RMK A01 T03320183  RH  044%=      5-min Rain = 0
KRRS 131920Z 05012KT 33/18 A3005 RMK A01 T03310184  RH  044%=      5-min Rain = 0
KRRS 131925Z 05013G19KT 33/18 A3005 RMK A01 T03310183  RH  044%=      5-min Rain = 0
KRRS 131930Z 04015KT 33/18 A3005 RMK A01 T03320177  RH  042%=      5-min Rain = 0
KRRS 131935Z 04010G15KT 33/18 A3005 RMK A01 T03320179  RH  042%=      5-min Rain = 0
KRRS 131940Z 05013G19KT 33/18 A3005 RMK A01 T03340180  RH  042%=      5-min Rain = 0
KRRS 131945Z 06010G15KT 33/18 A3005 RMK A01 T03340183  RH  043%=      5-min Rain = 0
KRRS 131950Z 05013G26KT 34/18 A3004 RMK A01 T03370179  RH  041%=      5-min Rain = 0
KRRS 131955Z 05012KT 34/18 A3004 RMK A01 T03350178  RH  042%=      5-min Rain = 0
KRRS 132000Z 04010G16KT 34/18 A3004 RMK A01 T03350181  RH  042%=      5-min Rain = 0
KRRS 132005Z 05009G16KT 34/18 A3004 RMK A01 T03360183  RH  043%=      5-min Rain = 0
KRRS 132010Z 06010G15KT 33/18 A3004 RMK A01 T03340180  RH  042%=      5-min Rain = 0
KRRS 132015Z 04008G15KT 34/18 A3004 RMK A01 T03370182  RH  042%=      5-min Rain = 0
KRRS 132020Z 05012KT 34/18 A3004 RMK A01 T03390179  RH  041%=      5-min Rain = 0
KRRS 132025Z 05010G15KT 34/18 A3004 RMK A01 T03370180  RH  042%=      5-min Rain = 0
KRRS 132030Z 05009G15KT 34/19 A3003 RMK A01 T03390185  RH  043%=      5-min Rain = 0
KRRS 132035Z 04010G15KT 34/18 A3003 RMK A01 T03400182  RH  041%=      5-min Rain = 0
KRRS 132040Z 06011KT 34/18 A3003 RMK A01 T03400180  RH  041%=      5-min Rain = 0
KRRS 132045Z 07011KT 34/18 A3003 RMK A01 T03400182  RH  042%=      5-min Rain = 0
KRRS 132050Z 08010G15KT 34/18 A3003 RMK A01 T03360181  RH  042%=      5-min Rain = 0
KRRS 132055Z 07010G16KT 33/18 A3003 RMK A01 T03340181  RH  043%=      5-min Rain = 0
KRRS 132100Z 05010G15KT 34/18 A3003 RMK A01 T03380181  RH  041%=      5-min Rain = 0
KRRS 132105Z 05010KT 34/18 A3003 RMK A01 T03380179  RH  041%=      5-min Rain = 0
KRRS 132110Z 06008G14KT 34/18 A3003 RMK A01 T03370176  RH  040%=      5-min Rain = 0
KRRS 132115Z 05010G15KT 34/18 A3002 RMK A01 T03380175  RH  040%=      5-min Rain = 0
KRRS 132120Z 04009KT 34/18 A3002 RMK A01 T03380175  RH  040%=      5-min Rain = 0
KRRS 132125Z 07013G18KT 34/18 A3002 RMK A01 T03430179  RH  040%=      5-min Rain = 0
KRRS 132130Z 07010G17KT 34/18 A3002 RMK A01 T03400177  RH  040%=      5-min Rain = 0
KRRS 132135Z 05009G15KT 34/18 A3002 RMK A01 T03410175  RH  039%=      5-min Rain = 0
KRRS 132140Z 03011G17KT 34/18 A3002 RMK A01 T03440176  RH  039%=      5-min Rain = 0
KRRS 132145Z 05010G16KT 34/18 A3002 RMK A01 T03410177  RH  040%=      5-min Rain = 0
KRRS 132150Z 05011G17KT 34/18 A3001 RMK A01 T03410176  RH  040%=      5-min Rain = 0
KRRS 132155Z 05009G17KT 34/18 A3001 RMK A01 T03410176  RH  039%=      5-min Rain = 0
KRRS 132200Z 06012G18KT 34/18 A3001 RMK A01 T03400177  RH  040%=      5-min Rain = 0
KRRS 132205Z 05009G18KT 34/18 A3001 RMK A01 T03390177  RH  040%=      5-min Rain = 0
KRRS 132210Z 05010G17KT 34/18 A3001 RMK A01 T03390179  RH  041%=      5-min Rain = 0
KRRS 132215Z 06011G17KT 34/18 A3001 RMK A01 T03420181  RH  041%=      5-min Rain = 0
KRRS 132220Z 05008G18KT 34/18 A3001 RMK A01 T03390180  RH  041%=      5-min Rain = 0
KRRS 132225Z 05010KT 34/18 A3001 RMK A01 T03420180  RH  041%=      5-min Rain = 0
KRRS 132230Z 07011G16KT 34/18 A3001 RMK A01 T03400182  RH  041%=      5-min Rain = 0
KRRS 132235Z 08010KT 34/18 A30 RMK A01 T03390183  RH  042%=      5-min Rain = 0
KRRS 132240Z 06006KT 33/18 A30 RMK A01 T03320183  RH  043%=      5-min Rain = 0
KRRS 132245Z 07010KT 34/19 A30 RMK A01 T03360185  RH  043%=      5-min Rain = 0
KRRS 132250Z 08009KT 34/19 A30 RMK A01 T03370186  RH  043%=      5-min Rain = 0
KRRS 132255Z 05009KT 34/19 A30 RMK A01 T03400186  RH  042%=      5-min Rain = 0
KRRS 132300Z 07010KT 34/18 A30 RMK A01 T03350184  RH  043%=      5-min Rain = 0
KRRS 132305Z 08008KT 33/18 A30 RMK A01 T03290182  RH  044%=      5-min Rain = 0
KRRS 132310Z 07008KT 34/18 A30 RMK A01 T03370183  RH  042%=      5-min Rain = 0
KRRS 132315Z 06009G14KT 34/18 A30 RMK A01 T03350181  RH  042%=      5-min Rain = 0
KRRS 132320Z 08010KT 33/18 A30 RMK A01 T03340184  RH  043%=      5-min Rain = 0
KRRS 132325Z 07009G14KT 33/18 A30 RMK A01 T03310182  RH  044%=      5-min Rain = 0
KRRS 132330Z 07009KT 33/18 A30 RMK A01 T03280182  RH  044%=      5-min Rain = 0
KRRS 132335Z 07007G13KT 33/18 A30 RMK A01 T03320180  RH  043%=      5-min Rain = 0
KRRS 132340Z 05009G14KT 33/18 A30 RMK A01 T03290184  RH  045%=      5-min Rain = 0
KRRS 132345Z 07009G14KT 33/19 A30 RMK A01 T03250185  RH  046%=      5-min Rain = 0
KRRS 132350Z 08009KT 33/19 A3001 RMK A01 T03280185  RH  045%=      5-min Rain = 0
KRRS 132355Z 08011KT 33/19 A3001 RMK A01 T03300185  RH  044%=      5-min Rain = 0
KRRS 140000Z 07011KT 33/19 A3001 RMK A01 T03270186  RH  046%=      5-min Rain = 0
KRRS 140005Z 07009KT 32/19 A3001 RMK A01 T03230188  RH  047%=      5-min Rain = 0
KRRS 140010Z 08006KT 32/19 A3001 RMK A01 T03200187  RH  048%=      5-min Rain = 0
KRRS 140015Z 07008KT 32/19 A3001 RMK A01 T03230185  RH  047%=      5-min Rain = 0
KRRS 140020Z 06010KT 32/18 A3001 RMK A01 T03210184  RH  047%=      5-min Rain = 0
KRRS 140025Z 06010KT 32/19 A3001 RMK A01 T03170186  RH  048%=      5-min Rain = 0
KRRS 140030Z 06009KT 32/19 A3001 RMK A01 T03150190  RH  050%=      5-min Rain = 0
KRRS 140035Z 06010KT 32/19 A3001 RMK A01 T03160191  RH  050%=      5-min Rain = 0
KRRS 140040Z 06009KT 32/19 A3001 RMK A01 T03160193  RH  051%=      5-min Rain = 0
KRRS 140045Z 06009KT 31/19 A3001 RMK A01 T03130193  RH  052%=      5-min Rain = 0
KRRS 140050Z 06009KT 31/19 A3001 RMK A01 T03110194  RH  053%=      5-min Rain = 0
KRRS 140055Z 05009KT 31/19 A3002 RMK A01 T03100194  RH  053%=      5-min Rain = 0
KRRS 140100Z 05008KT 31/19 A3002 RMK A01 T03100194  RH  053%=      5-min Rain = 0
KRRS 140105Z 06009KT 31/19 A3002 RMK A01 T03090194  RH  053%=      5-min Rain = 0
KRRS 140110Z 05009KT 31/20 A3002 RMK A01 T03070195  RH  054%=      5-min Rain = 0
KRRS 140115Z 05008KT 31/20 A3002 RMK A01 T03050195  RH  055%=      5-min Rain = 0
KRRS 140120Z 05007KT 30/20 A3003 RMK A01 T03030195  RH  056%=      5-min Rain = 0
KRRS 140125Z 06008KT 30/19 A3003 RMK A01 T03010194  RH  056%=      5-min Rain = 0
KRRS 140130Z 06007KT 30/19 A3003 RMK A01 T02990193  RH  056%=      5-min Rain = 0
KRRS 140135Z 06008KT 30/19 A3003 RMK A01 T02970193  RH  057%=      5-min Rain = 0
KRRS 140140Z 06008KT 30/19 A3004 RMK A01 T02960193  RH  057%=      5-min Rain = 0
KRRS 140145Z 06006KT 30/19 A3004 RMK A01 T02950193  RH  057%=      5-min Rain = 0
KRRS 140150Z 06007KT 29/19 A3004 RMK A01 T02930193  RH  058%=      5-min Rain = 0
KRRS 140155Z 07007KT 29/19 A3004 RMK A01 T02910193  RH  059%=      5-min Rain = 0
KRRS 140200Z 07006KT 29/19 A3004 RMK A01 T02900193  RH  059%=      5-min Rain = 0
KRRS 140205Z 06005KT 29/19 A3004 RMK A01 T02870193  RH  060%=      5-min Rain = 0
KRRS 140210Z 06005KT 29/19 A3005 RMK A01 T02850193  RH  061%=      5-min Rain = 0
KRRS 140215Z 06005KT 28/19 A3005 RMK A01 T02820193  RH  062%=      5-min Rain = 0
KRRS 140220Z 05006KT 28/19 A3005 RMK A01 T02800193  RH  063%=      5-min Rain = 0
KRRS 140225Z 06006KT 28/19 A3006 RMK A01 T02780193  RH  063%=      5-min Rain = 0
KRRS 140230Z 06005KT 28/19 A3006 RMK A01 T02780193  RH  063%=      5-min Rain = 0
KRRS 140235Z 06005KT 28/19 A3007 RMK A01 T02770193  RH  064%=      5-min Rain = 0
KRRS 140240Z 06006KT 28/19 A3007 RMK A01 T02760193  RH  064%=      5-min Rain = 0
KRRS 140245Z 05006KT 28/19 A3008 RMK A01 T02750194  RH  065%=      5-min Rain = 0
KRRS 140250Z 05005KT 27/19 A3008 RMK A01 T02730194  RH  065%=      5-min Rain = 0
KRRS 140255Z 05005KT 27/19 A3008 RMK A01 T02710194  RH  066%=      5-min Rain = 0
KRRS 140300Z 05005KT 27/19 A3008 RMK A01 T02690194  RH  067%=      5-min Rain = 0
KRRS 140305Z 06005KT 27/19 A3008 RMK A01 T02680194  RH  067%=      5-min Rain = 0
KRRS 140310Z 06005KT 27/19 A3008 RMK A01 T02670193  RH  068%=      5-min Rain = 0
KRRS 140315Z 05006KT 27/19 A3009 RMK A01 T02660193  RH  068%=      5-min Rain = 0
KRRS 140320Z 04006KT 26/19 A3009 RMK A01 T02640192  RH  069%=      5-min Rain = 0
KRRS 140325Z 04005KT 26/19 A3009 RMK A01 T02630193  RH  069%=      5-min Rain = 0
KRRS 140330Z 04005KT 26/19 A3009 RMK A01 T02620193  RH  069%=      5-min Rain = 0
KRRS 140335Z 04006KT 26/19 A3009 RMK A01 T02600193  RH  070%=      5-min Rain = 0
KRRS 140340Z 04006KT 26/19 A3009 RMK A01 T02580192  RH  071%=      5-min Rain = 0
KRRS 140345Z 04005KT 26/19 A3009 RMK A01 T02570192  RH  072%=      5-min Rain = 0
KRRS 140350Z 03005KT 26/19 A301 RMK A01 T02560192  RH  072%=      5-min Rain = 0
KRRS 140355Z 04005KT 26/19 A301 RMK A01 T02560193  RH  072%=      5-min Rain = 0
KRRS 140400Z 04006KT 26/19 A301 RMK A01 T02550193  RH  072%=      5-min Rain = 0
KRRS 140405Z 04006KT 25/19 A301 RMK A01 T02540193  RH  073%=      5-min Rain = 0
KRRS 140410Z 03006KT 25/19 A301 RMK A01 T02530194  RH  074%=      5-min Rain = 0
KRRS 140415Z 03006KT 25/20 A301 RMK A01 T02520195  RH  075%=      5-min Rain = 0
KRRS 140420Z 04006KT 25/20 A301 RMK A01 T02520195  RH  075%=      5-min Rain = 0
KRRS 140425Z 04006KT 25/20 A301 RMK A01 T02520195  RH  075%=      5-min Rain = 0
KRRS 140430Z 03006KT 25/20 A301 RMK A01 T02500195  RH  075%=      5-min Rain = 0
KRRS 140435Z 03005KT 25/19 A3009 RMK A01 T02480194  RH  076%=      5-min Rain = 0
KRRS 140440Z 04004KT 25/19 A3009 RMK A01 T02470194  RH  077%=      5-min Rain = 0
KRRS 140445Z 05004KT 25/19 A3009 RMK A01 T02480194  RH  076%=      5-min Rain = 0
KRRS 140450Z 06004KT 25/19 A3009 RMK A01 T02470194  RH  076%=      5-min Rain = 0
KRRS 140455Z 06004KT 25/19 A3009 RMK A01 T02470193  RH  076%=      5-min Rain = 0

Page generated in 0.0095 seconds.